Time;durP1;ratioP1;P1;durP2;ratioP2;P2;SDS_P1;SDS_P2;PMS_P1;PMS_P2;Temp;Humidity;BMP_temperature;BMP_pressure;BME280_temperature;BME280_humidity;BME280_pressure;Samples;Min_cycle;Max_cycle;Signal;HPM_P1;HPM_P2
2023/06/27 00:01:05;;;;;;;0.10;0.10;;;15.90;99.90;;;;;;5108896;27;20478;-77
2023/06/27 00:03:33;;;;;;;0.10;0.10;;;16.00;99.90;;;;;;5107297;28;20478;-77
2023/06/27 00:06:00;;;;;;;0.10;0.10;;;15.80;99.90;;;;;;5109716;28;20200;-78
2023/06/27 00:08:27;;;;;;;0.10;0.10;;;15.80;99.90;;;;;;5109817;27;20481;-76
2023/06/27 00:10:53;;;;;;;0.10;0.10;;;15.70;99.90;;;;;;5100676;28;20473;-76
2023/06/27 00:13:20;;;;;;;0.10;0.10;;;15.70;99.90;;;;;;5098577;28;20463;-77
2023/06/27 00:15:48;;;;;;;0.10;0.10;;;15.60;99.90;;;;;;5095760;28;20952;-77
2023/06/27 00:18:17;;;;;;;0.10;0.10;;;15.70;99.90;;;;;;5110694;28;20513;-77
2023/06/27 00:20:43;;;;;;;0.10;0.10;;;15.70;99.90;;;;;;5109539;28;20559;-78
2023/06/27 00:23:33;;;;;;;0.10;0.10;;;15.60;99.90;;;;;;5092440;28;20822;-77
2023/06/27 00:25:59;;;;;;;0.10;0.10;;;15.60;99.90;;;;;;5111520;28;20268;-77
2023/06/27 00:28:24;;;;;;;0.10;0.10;;;15.60;99.90;;;;;;5100090;28;20487;-77
2023/06/27 00:30:50;;;;;;;0.10;0.10;;;15.60;99.90;;;;;;5089245;28;21048;-77
2023/06/27 00:33:15;;;;;;;0.10;0.10;;;15.50;99.90;;;;;;5106399;28;20962;-77
2023/06/27 00:35:41;;;;;;;0.10;0.10;;;15.60;99.90;;;;;;5107666;28;20995;-77
2023/06/27 00:38:06;;;;;;;0.10;0.10;;;15.50;99.90;;;;;;5109526;28;20643;-77
2023/06/27 00:40:32;;;;;;;0.10;0.10;;;15.50;99.90;;;;;;5098273;28;20655;-77
2023/06/27 00:42:57;;;;;;;0.10;0.10;;;15.40;99.90;;;;;;5112017;28;20687;-77
2023/06/27 00:45:23;;;;;;;0.10;0.10;;;15.30;99.90;;;;;;5107231;28;20568;-77
2023/06/27 00:48:00;;;;;;;0.10;0.10;;;15.60;99.90;;;;;;5107720;28;20208;-77
2023/06/27 00:50:27;;;;;;;0.10;0.10;;;15.50;99.90;;;;;;5107088;28;20268;-77
2023/06/27 00:52:54;;;;;;;0.10;0.10;;;15.30;99.90;;;;;;5105848;28;20434;-77
2023/06/27 00:55:21;;;;;;;0.10;0.10;;;15.30;99.90;;;;;;5084841;28;20442;-77
2023/06/27 00:57:47;;;;;;;0.10;0.10;;;15.20;99.90;;;;;;5105738;28;20465;-77
2023/06/27 01:00:15;;;;;;;0.10;0.10;;;15.20;99.90;;;;;;5108254;28;20485;-77
2023/06/27 01:02:41;;;;;;;0.10;0.10;;;15.30;99.90;;;;;;5105330;28;20477;-78
2023/06/27 01:05:07;;;;;;;0.10;0.10;;;15.30;99.90;;;;;;5108750;28;20540;-77
2023/06/27 01:07:45;;;;;;;0.10;0.10;;;15.30;99.90;;;;;;5108934;28;20536;-77
2023/06/27 01:10:28;;;;;;;0.10;0.10;;;15.30;99.90;;;;;;5102477;28;20471;-77
2023/06/27 01:13:22;;;;;;;0.10;0.10;;;15.30;99.90;;;;;;5078577;28;20469;-77
2023/06/27 01:15:48;;;;;;;0.10;0.10;;;15.20;99.90;;;;;;5074999;28;20452;-78
2023/06/27 01:18:16;;;;;;;0.10;0.10;;;15.20;99.90;;;;;;5096369;28;20426;-78
2023/06/27 01:20:45;;;;;;;0.10;0.10;;;15.20;99.90;;;;;;5107869;28;20651;-77
2023/06/27 01:23:24;;;;;;;0.10;0.10;;;15.20;99.90;;;;;;5108454;28;20479;-77
2023/06/27 01:25:54;;;;;;;0.10;0.10;;;15.00;99.90;;;;;;5108390;28;20438;-77
2023/06/27 01:28:19;;;;;;;0.10;0.10;;;15.00;99.90;;;;;;5087561;28;20438;-78
2023/06/27 01:30:45;;;;;;;0.10;0.10;;;15.10;99.90;;;;;;5104050;28;20438;-78
2023/06/27 01:33:20;;;;;;;0.10;0.10;;;15.10;99.90;;;;;;5090340;28;20199;-79
2023/06/27 01:36:04;;;;;;;0.10;0.10;;;15.00;99.90;;;;;;5109025;28;20673;-78
2023/06/27 01:38:42;;;;;;;0.10;0.10;;;14.90;99.90;;;;;;5107681;28;20512;-77
2023/06/27 01:41:12;;;;;;;0.10;0.10;;;15.00;99.90;;;;;;5112142;28;20437;-79
2023/06/27 01:43:41;;;;;;;0.10;0.10;;;14.90;99.90;;;;;;5084988;28;20477;-77
2023/06/27 01:46:08;;;;;;;0.10;0.10;;;14.90;99.90;;;;;;5103244;28;20460;-78
2023/06/27 01:48:35;;;;;;;0.10;0.10;;;14.90;99.90;;;;;;5110773;28;20855;-78
2023/06/27 01:51:01;;;;;;;0.10;0.10;;;14.90;99.90;;;;;;5110050;28;20463;-78
2023/06/27 01:53:26;;;;;;;0.10;0.10;;;14.80;99.90;;;;;;5122858;27;20545;-78
2023/06/27 01:55:52;;;;;;;0.10;0.10;;;14.80;99.90;;;;;;5108992;27;20196;-79
2023/06/27 01:58:17;;;;;;;0.10;0.10;;;14.80;99.90;;;;;;5109445;28;20180;-77
2023/06/27 02:00:43;;;;;;;0.10;0.10;;;14.90;99.90;;;;;;5109734;28;20315;-78
2023/06/27 02:03:08;;;;;;;0.10;0.10;;;14.90;99.90;;;;;;5112257;28;20235;-77
2023/06/27 02:05:34;;;;;;;0.10;0.10;;;15.00;99.90;;;;;;5111621;28;20234;-78
2023/06/27 02:07:59;;;;;;;0.10;0.10;;;14.90;99.90;;;;;;5093809;28;20582;-79
2023/06/27 02:10:25;;;;;;;0.10;0.10;;;14.90;99.90;;;;;;5122371;27;20298;-77
2023/06/27 02:12:50;;;;;;;0.10;0.10;;;15.00;99.90;;;;;;5114118;27;20211;-78
2023/06/27 02:15:16;;;;;;;0.10;0.10;;;15.00;99.90;;;;;;5105425;28;20176;-77
2023/06/27 02:17:42;;;;;;;0.10;0.10;;;14.80;99.90;;;;;;5108825;28;20281;-77
2023/06/27 02:20:07;;;;;;;0.10;0.10;;;14.80;99.90;;;;;;5092096;28;20546;-78
2023/06/27 02:22:33;;;;;;;0.10;0.10;;;14.80;99.90;;;;;;5110196;28;20293;-77
2023/06/27 02:24:58;;;;;;;0.10;0.10;;;14.90;99.90;;;;;;5090810;28;20202;-78
2023/06/27 02:27:24;;;;;;;0.10;0.10;;;14.80;99.90;;;;;;5092343;28;20172;-78
2023/06/27 02:29:50;;;;;;;0.10;0.10;;;14.70;99.90;;;;;;5104899;28;20263;-77
2023/06/27 02:32:15;;;;;;;0.10;0.10;;;14.60;99.90;;;;;;5107334;28;20180;-77
2023/06/27 02:34:41;;;;;;;0.10;0.10;;;14.60;99.90;;;;;;5084743;28;20204;-77
2023/06/27 02:37:06;;;;;;;0.10;0.10;;;14.50;99.90;;;;;;5106449;28;20268;-77
2023/06/27 02:39:32;;;;;;;0.10;0.10;;;14.60;99.90;;;;;;5109473;28;20556;-77
2023/06/27 02:41:57;;;;;;;0.10;0.10;;;14.60;99.90;;;;;;5108893;27;20194;-77
2023/06/27 02:44:23;;;;;;;0.10;0.10;;;14.50;99.90;;;;;;5111326;27;20216;-77
2023/06/27 02:46:48;;;;;;;0.10;0.10;;;14.50;99.90;;;;;;5106320;28;20255;-77
2023/06/27 02:49:14;;;;;;;0.10;0.10;;;14.50;99.90;;;;;;5109818;28;20185;-77
2023/06/27 02:51:39;;;;;;;0.20;0.20;;;14.50;99.90;;;;;;5103917;28;20234;-77
2023/06/27 02:54:05;;;;;;;0.10;0.10;;;14.50;99.90;;;;;;5096834;28;20260;-77
2023/06/27 02:56:30;;;;;;;0.10;0.10;;;14.50;99.90;;;;;;5105080;27;20188;-78
2023/06/27 02:58:56;;;;;;;0.10;0.10;;;14.50;99.90;;;;;;5107661;27;20180;-77
2023/06/27 03:01:21;;;;;;;0.10;0.10;;;14.40;99.90;;;;;;5121096;27;20281;-77
2023/06/27 03:03:47;;;;;;;0.10;0.10;;;14.40;99.90;;;;;;5106389;27;20221;-77
2023/06/27 03:06:12;;;;;;;0.10;0.10;;;14.30;99.90;;;;;;5120192;27;20238;-78
2023/06/27 03:08:38;;;;;;;0.10;0.10;;;14.50;99.90;;;;;;5117547;27;20180;-77
2023/06/27 03:11:04;;;;;;;0.10;0.10;;;14.50;99.90;;;;;;5107105;27;20185;-77
2023/06/27 03:13:29;;;;;;;0.10;0.10;;;14.50;99.90;;;;;;5108591;28;20204;-77
2023/06/27 03:15:55;;;;;;;0.10;0.10;;;14.40;99.90;;;;;;5110085;28;20199;-77
2023/06/27 03:18:21;;;;;;;0.10;0.10;;;14.40;99.90;;;;;;5111429;28;20532;-77
2023/06/27 03:20:46;;;;;;;0.10;0.10;;;14.40;99.90;;;;;;5090617;28;20229;-77
2023/06/27 03:23:12;;;;;;;0.10;0.10;;;14.50;99.90;;;;;;5108923;28;20228;-77
2023/06/27 03:25:37;;;;;;;0.10;0.10;;;14.40;99.90;;;;;;5104509;28;20192;-77
2023/06/27 03:28:03;;;;;;;0.10;0.10;;;14.30;99.90;;;;;;5080620;28;20596;-77
2023/06/27 03:30:29;;;;;;;0.10;0.10;;;14.50;99.90;;;;;;5090860;28;20267;-78
2023/06/27 03:32:54;;;;;;;0.10;0.10;;;14.50;99.90;;;;;;5072587;28;20863;-78
2023/06/27 03:35:20;;;;;;;0.10;0.10;;;14.50;99.90;;;;;;5107338;28;20189;-79
2023/06/27 03:37:45;;;;;;;0.10;0.10;;;14.60;99.90;;;;;;5102439;28;20224;-78
2023/06/27 03:40:11;;;;;;;0.10;0.10;;;14.60;99.90;;;;;;5088601;28;20184;-78
2023/06/27 03:42:37;;;;;;;0.10;0.10;;;14.50;99.90;;;;;;5107513;27;20490;-78
2023/06/27 03:45:03;;;;;;;0.10;0.10;;;14.50;99.90;;;;;;5105946;28;20233;-78
2023/06/27 03:47:32;;;;;;;0.10;0.10;;;14.60;99.90;;;;;;5108953;28;20810;-79
2023/06/27 03:49:58;;;;;;;0.10;0.10;;;14.60;99.90;;;;;;5107342;28;20184;-79
2023/06/27 03:52:23;;;;;;;0.10;0.10;;;14.60;99.90;;;;;;5109657;28;20442;-78
2023/06/27 03:54:49;;;;;;;0.10;0.10;;;14.60;99.90;;;;;;5107820;28;20191;-78
2023/06/27 03:57:14;;;;;;;0.10;0.10;;;14.60;99.90;;;;;;5105862;28;20192;-78
2023/06/27 03:59:40;;;;;;;0.10;0.10;;;14.60;99.90;;;;;;5108132;28;20188;-78
2023/06/27 04:02:05;;;;;;;0.10;0.10;;;14.60;99.90;;;;;;5097781;28;20193;-78
2023/06/27 04:04:31;;;;;;;0.10;0.10;;;14.60;99.90;;;;;;5114687;27;20255;-77
2023/06/27 04:06:56;;;;;;;0.10;0.10;;;14.70;99.90;;;;;;5107689;28;20260;-77
2023/06/27 04:09:22;;;;;;;0.10;0.10;;;14.60;99.90;;;;;;5106502;28;20224;-78
2023/06/27 04:11:47;;;;;;;0.10;0.10;;;14.70;99.90;;;;;;5105944;28;20267;-78
2023/06/27 04:14:17;;;;;;;0.10;0.10;;;14.80;99.90;;;;;;5108014;28;20176;-78
2023/06/27 04:16:43;;;;;;;0.10;0.10;;;14.90;99.90;;;;;;5109263;28;20215;-78
2023/06/27 04:19:09;;;;;;;0.10;0.10;;;14.90;99.90;;;;;;5106952;28;20445;-78
2023/06/27 04:21:34;;;;;;;0.10;0.10;;;14.90;99.90;;;;;;5106450;28;21072;-78
2023/06/27 04:24:00;;;;;;;0.10;0.10;;;14.90;99.90;;;;;;5086895;28;20273;-77
2023/06/27 04:26:25;;;;;;;0.10;0.10;;;14.90;99.90;;;;;;5107825;28;20181;-78
2023/06/27 04:28:51;;;;;;;0.10;0.10;;;15.00;99.90;;;;;;5088471;28;20184;-77
2023/06/27 04:31:16;;;;;;;0.10;0.10;;;15.00;99.90;;;;;;5104112;28;20181;-78
2023/06/27 04:33:42;;;;;;;0.10;0.10;;;15.00;99.90;;;;;;5109048;28;20664;-79
2023/06/27 04:36:08;;;;;;;0.10;0.10;;;15.00;99.90;;;;;;5107018;28;20204;-78
2023/06/27 04:38:39;;;;;;;0.10;0.10;;;15.00;99.90;;;;;;5103516;28;20259;-78
2023/06/27 04:41:05;;;;;;;0.10;0.10;;;15.00;99.90;;;;;;5105581;28;20441;-78
2023/06/27 04:43:32;;;;;;;0.10;0.10;;;15.10;99.90;;;;;;5106735;28;20520;-78
2023/06/27 04:46:00;;;;;;;0.10;0.10;;;15.10;99.90;;;;;;5108804;28;20438;-78
2023/06/27 04:48:27;;;;;;;0.10;0.10;;;15.10;99.90;;;;;;5089405;28;20446;-78
2023/06/27 04:50:53;;;;;;;0.10;0.10;;;15.20;99.90;;;;;;5106790;28;20457;-77
2023/06/27 04:53:20;;;;;;;0.10;0.10;;;15.20;99.90;;;;;;5107204;28;20495;-79
2023/06/27 04:55:47;;;;;;;0.10;0.10;;;15.30;99.90;;;;;;5096852;28;20445;-78
2023/06/27 04:58:12;;;;;;;0.10;0.10;;;15.40;99.90;;;;;;5105994;28;20448;-80
2023/06/27 05:00:38;;;;;;;0.10;0.10;;;15.40;99.90;;;;;;5112501;28;20565;-78
2023/06/27 05:03:03;;;;;;;0.10;0.10;;;15.50;99.90;;;;;;5105013;28;20218;-78
2023/06/27 05:05:32;;;;;;;0.10;0.10;;;15.60;99.90;;;;;;5089505;28;20199;-78
2023/06/27 05:08:03;;;;;;;0.10;0.10;;;15.60;99.90;;;;;;5101503;28;20180;-78
2023/06/27 05:10:32;;;;;;;0.20;0.20;;;15.80;99.90;;;;;;5102806;28;20982;-79
2023/06/27 05:12:58;;;;;;;0.10;0.10;;;15.80;99.90;;;;;;5108803;28;20446;-78
2023/06/27 05:15:23;;;;;;;0.10;0.10;;;15.90;99.90;;;;;;5092414;28;20461;-78
2023/06/27 05:17:52;;;;;;;0.10;0.10;;;16.10;99.90;;;;;;5107770;28;21037;-78
2023/06/27 05:20:18;;;;;;;0.10;0.10;;;16.30;99.90;;;;;;5082846;28;20227;-78
2023/06/27 05:22:44;;;;;;;0.10;0.10;;;16.20;99.90;;;;;;5120562;27;20923;-77
2023/06/27 05:25:09;;;;;;;0.10;0.10;;;16.10;99.90;;;;;;5121027;27;20945;-78
2023/06/27 05:27:35;;;;;;;0.10;0.10;;;16.20;99.90;;;;;;5086214;28;20597;-78
2023/06/27 05:30:01;;;;;;;0.10;0.10;;;16.20;99.90;;;;;;5091715;28;20190;-77
2023/06/27 05:32:26;;;;;;;0.10;0.10;;;16.30;99.90;;;;;;5089956;28;20184;-78
2023/06/27 05:34:52;;;;;;;0.10;0.10;;;16.30;99.90;;;;;;5110900;28;20203;-78
2023/06/27 05:37:17;;;;;;;0.10;0.10;;;16.40;99.90;;;;;;5093120;28;20196;-77
2023/06/27 05:39:43;;;;;;;0.10;0.10;;;16.40;99.90;;;;;;5093170;28;20650;-79
2023/06/27 05:42:08;;;;;;;0.10;0.10;;;16.50;99.90;;;;;;5095840;28;20184;-78
2023/06/27 05:44:34;;;;;;;0.10;0.10;;;16.60;99.90;;;;;;5110954;27;20189;-79
2023/06/27 05:47:00;;;;;;;0.10;0.10;;;16.70;99.90;;;;;;5107404;28;20699;-78
2023/06/27 05:49:25;;;;;;;0.10;0.10;;;16.80;99.90;;;;;;5123381;27;20177;-78
2023/06/27 05:51:51;;;;;;;0.10;0.10;;;16.80;99.90;;;;;;5109260;27;20457;-79
2023/06/27 05:54:16;;;;;;;0.10;0.10;;;16.90;99.90;;;;;;5107710;28;20212;-79
2023/06/27 05:56:42;;;;;;;0.10;0.10;;;16.80;99.90;;;;;;5103452;27;20188;-78
2023/06/27 05:59:08;;;;;;;0.10;0.10;;;16.80;99.90;;;;;;5110727;28;20188;-78
2023/06/27 06:01:35;;;;;;;0.10;0.10;;;17.00;99.90;;;;;;5107382;28;20715;-79
2023/06/27 06:04:01;;;;;;;0.10;0.10;;;17.00;99.90;;;;;;5109237;28;20204;-79
2023/06/27 06:06:27;;;;;;;0.10;0.10;;;17.10;99.90;;;;;;5088809;28;20466;-78
2023/06/27 06:08:53;;;;;;;0.10;0.10;;;17.20;99.90;;;;;;5103786;27;20567;-79
2023/06/27 06:11:18;;;;;;;0.10;0.10;;;17.20;99.90;;;;;;5067613;28;20189;-79
2023/06/27 06:13:44;;;;;;;0.10;0.10;;;17.40;99.90;;;;;;5095125;28;20282;-78
2023/06/27 06:16:09;;;;;;;0.10;0.10;;;17.50;99.90;;;;;;5105602;28;20206;-78
2023/06/27 06:18:35;;;;;;;0.10;0.10;;;17.60;99.90;;;;;;5095695;28;20656;-78
2023/06/27 06:21:00;;;;;;;0.10;0.10;;;17.40;99.90;;;;;;5104070;27;20323;-78
2023/06/27 06:23:26;;;;;;;0.10;0.10;;;17.50;99.90;;;;;;5106384;28;20216;-78
2023/06/27 06:25:51;;;;;;;0.10;0.10;;;17.60;99.90;;;;;;5104559;28;20188;-76
2023/06/27 06:28:17;;;;;;;0.10;0.10;;;17.80;99.90;;;;;;5106570;27;20180;-77
2023/06/27 06:30:42;;;;;;;0.10;0.10;;;17.80;99.90;;;;;;5105421;28;20184;-80
2023/06/27 06:33:08;;;;;;;0.10;0.10;;;18.00;99.90;;;;;;5105476;28;20524;-78
2023/06/27 06:35:33;;;;;;;0.10;0.10;;;18.00;99.90;;;;;;5095091;27;20226;-80
2023/06/27 06:38:01;;;;;;;0.10;0.10;;;18.00;99.90;;;;;;5089883;28;20556;-77
2023/06/27 06:40:29;;;;;;;0.10;0.10;;;18.10;99.90;;;;;;5107616;27;20176;-80
2023/06/27 06:42:54;;;;;;;0.10;0.10;;;18.00;99.90;;;;;;5103824;27;20518;-79
2023/06/27 06:45:21;;;;;;;0.10;0.07;;;18.00;99.90;;;;;;5105232;27;20492;-78
2023/06/27 06:47:46;;;;;;;0.10;0.10;;;18.10;99.90;;;;;;5107384;28;20212;-80
2023/06/27 06:50:14;;;;;;;0.10;0.10;;;18.30;99.90;;;;;;5111627;27;20949;-77
2023/06/27 06:52:40;;;;;;;0.10;0.10;;;18.30;99.90;;;;;;5107291;27;20180;-81
2023/06/27 06:55:06;;;;;;;0.10;0.10;;;18.60;99.90;;;;;;5090614;28;20441;-79
2023/06/27 06:57:31;;;;;;;0.10;0.10;;;18.70;99.90;;;;;;5108595;27;20196;-80
2023/06/27 06:59:57;;;;;;;0.10;0.10;;;18.70;99.90;;;;;;5107837;27;20870;-79
2023/06/27 07:02:22;;;;;;;0.10;0.10;;;18.50;99.90;;;;;;5118917;27;20652;-78
2023/06/27 07:04:48;;;;;;;0.10;0.07;;;18.60;99.90;;;;;;5107559;27;20683;-79
2023/06/27 07:07:13;;;;;;;0.10;0.10;;;18.50;99.90;;;;;;5107917;27;20204;-79
2023/06/27 07:09:39;;;;;;;0.10;0.10;;;18.70;99.90;;;;;;5105201;28;20267;-79
2023/06/27 07:12:05;;;;;;;0.10;0.10;;;18.80;99.90;;;;;;5111756;28;20177;-78
2023/06/27 07:14:30;;;;;;;0.10;0.10;;;18.90;99.90;;;;;;5104633;28;20719;-81
2023/06/27 07:16:56;;;;;;;0.10;0.10;;;18.90;99.90;;;;;;5106241;28;20243;-78
2023/06/27 07:19:21;;;;;;;0.10;0.00;;;18.80;99.90;;;;;;5098471;28;20711;-77
2023/06/27 07:21:47;;;;;;;0.10;0.10;;;18.70;99.90;;;;;;5120155;27;20264;-77
2023/06/27 07:24:12;;;;;;;0.10;0.10;;;18.80;99.90;;;;;;5114070;27;20223;-77
2023/06/27 07:26:38;;;;;;;0.10;0.10;;;18.90;99.90;;;;;;5109965;28;20623;-77
2023/06/27 07:29:03;;;;;;;0.10;0.10;;;18.80;99.90;;;;;;5100031;28;20193;-75
2023/06/27 07:31:29;;;;;;;0.10;0.07;;;19.10;99.90;;;;;;5109123;28;20271;-76
2023/06/27 07:33:55;;;;;;;0.10;0.10;;;19.20;99.90;;;;;;5103050;27;20722;-76
2023/06/27 07:36:20;;;;;;;0.10;0.10;;;19.10;99.90;;;;;;5112835;27;20187;-77
2023/06/27 07:38:46;;;;;;;0.10;0.10;;;19.20;99.90;;;;;;5080737;27;20450;-76
2023/06/27 07:41:11;;;;;;;0.10;0.10;;;19.30;99.90;;;;;;5104634;27;20184;-77
2023/06/27 07:43:37;;;;;;;0.10;0.00;;;19.50;99.90;;;;;;5109038;28;20586;-76
2023/06/27 07:46:02;;;;;;;0.10;0.00;;;19.80;99.90;;;;;;5108281;27;20190;-75
2023/06/27 07:48:28;;;;;;;0.10;0.10;;;19.50;99.90;;;;;;5092309;27;20317;-76
2023/06/27 07:50:53;;;;;;;0.10;0.00;;;19.60;99.90;;;;;;5118131;27;20672;-75
2023/06/27 07:53:19;;;;;;;0.10;0.00;;;19.60;99.90;;;;;;5118536;27;20600;-75
2023/06/27 07:55:44;;;;;;;0.10;0.00;;;20.10;99.90;;;;;;5090535;27;20181;-75
2023/06/27 07:58:10;;;;;;;0.10;0.00;;;20.00;99.90;;;;;;5085332;28;20215;-75
2023/06/27 08:00:36;;;;;;;0.10;0.10;;;20.10;99.90;;;;;;5085564;28;20241;-75
2023/06/27 08:03:02;;;;;;;0.10;0.00;;;20.10;99.90;;;;;;5081525;28;20215;-75
2023/06/27 08:05:31;;;;;;;0.10;0.00;;;20.40;99.90;;;;;;5109209;28;20324;-75
2023/06/27 08:07:57;;;;;;;0.10;0.00;;;20.30;99.90;;;;;;5103713;28;20466;-75
2023/06/27 08:10:25;;;;;;;0.10;0.00;;;20.00;99.90;;;;;;5086538;28;20474;-76
2023/06/27 08:12:51;;;;;;;0.10;0.00;;;19.40;99.90;;;;;;5102261;28;20194;-75
2023/06/27 08:15:16;;;;;;;0.00;0.00;;;19.20;99.90;;;;;;5087633;28;20450;-75
2023/06/27 08:17:42;;;;;;;0.00;0.00;;;19.70;99.90;;;;;;5082712;28;20192;-75
2023/06/27 08:20:08;;;;;;;0.00;0.00;;;20.30;99.90;;;;;;5104648;28;20232;-74
2023/06/27 08:22:34;;;;;;;0.00;0.00;;;20.50;99.90;;;;;;5107264;28;20184;-75
2023/06/27 08:24:59;;;;;;;0.00;0.00;;;20.90;99.90;;;;;;5084545;28;20523;-75
2023/06/27 08:27:25;;;;;;;0.10;0.00;;;21.20;99.90;;;;;;5100647;28;20184;-75
2023/06/27 08:29:50;;;;;;;0.10;0.00;;;21.00;99.90;;;;;;5105159;28;20184;-76
2023/06/27 08:32:16;;;;;;;0.10;0.00;;;20.60;99.90;;;;;;5102056;28;20172;-76
2023/06/27 08:34:41;;;;;;;0.10;0.00;;;20.20;99.90;;;;;;5104522;28;20263;-75
2023/06/27 08:37:07;;;;;;;0.10;0.00;;;20.00;99.90;;;;;;5106192;28;20287;-76
2023/06/27 08:39:33;;;;;;;0.10;0.00;;;19.60;99.90;;;;;;5104817;28;20188;-75
2023/06/27 08:41:58;;;;;;;0.10;0.00;;;19.90;99.90;;;;;;5089373;28;20175;-76
2023/06/27 08:44:24;;;;;;;0.10;0.00;;;20.50;99.90;;;;;;5092251;28;20216;-76
2023/06/27 08:46:51;;;;;;;0.10;0.00;;;20.70;99.90;;;;;;5106151;28;20184;-74
2023/06/27 08:49:23;;;;;;;0.10;0.00;;;21.00;99.90;;;;;;5110567;28;20176;-75
2023/06/27 08:51:50;;;;;;;0.10;0.00;;;21.20;99.90;;;;;;5110445;27;20516;-75
2023/06/27 08:54:27;;;;;;;0.10;0.00;;;21.70;99.90;;;;;;5108539;28;20444;-76
2023/06/27 08:56:53;;;;;;;0.10;0.00;;;21.40;99.90;;;;;;5120321;27;20440;-76
2023/06/27 08:59:24;;;;;;;0.10;0.00;;;21.10;99.90;;;;;;5115000;27;20467;-76
2023/06/27 09:01:51;;;;;;;0.10;0.00;;;20.80;99.90;;;;;;5107094;28;20879;-76
2023/06/27 09:04:17;;;;;;;0.10;0.00;;;20.40;99.90;;;;;;5101645;27;20509;-76
2023/06/27 09:06:44;;;;;;;0.10;0.00;;;20.70;99.90;;;;;;5115943;27;20488;-76
2023/06/27 09:09:11;;;;;;;0.10;0.00;;;20.90;99.90;;;;;;5102100;28;20281;-76
2023/06/27 09:11:37;;;;;;;0.10;0.00;;;21.30;99.90;;;;;;5109416;27;20438;-75
2023/06/27 09:14:05;;;;;;;0.10;0.00;;;21.40;99.90;;;;;;5103777;28;20446;-76
2023/06/27 09:16:30;;;;;;;0.10;0.00;;;22.00;99.90;;;;;;5107013;28;20454;-75
2023/06/27 09:18:56;;;;;;;0.10;0.00;;;22.10;99.90;;;;;;5107529;27;20481;-76
2023/06/27 09:21:22;;;;;;;0.10;0.00;;;21.90;99.90;;;;;;5107893;27;20184;-78
2023/06/27 09:23:49;;;;;;;0.10;0.00;;;21.90;99.90;;;;;;5108009;28;20792;-77
2023/06/27 09:26:14;;;;;;;0.10;0.00;;;22.10;99.90;;;;;;5111720;28;20449;-80
2023/06/27 09:28:51;;;;;;;0.10;0.00;;;22.60;99.90;;;;;;5106068;28;20441;-77
2023/06/27 09:31:18;;;;;;;0.10;0.00;;;21.90;99.90;;;;;;5104122;28;20195;-76
2023/06/27 09:33:44;;;;;;;0.10;0.00;;;21.60;99.90;;;;;;5107570;28;20441;-79
2023/06/27 09:36:11;;;;;;;0.10;0.00;;;22.20;99.90;;;;;;5104459;28;20434;-78
2023/06/27 09:38:36;;;;;;;0.10;0.00;;;21.90;99.90;;;;;;5101479;28;20438;-77
2023/06/27 09:41:06;;;;;;;0.10;0.00;;;21.60;99.90;;;;;;5095060;28;20448;-78
2023/06/27 09:43:34;;;;;;;0.10;0.00;;;21.10;99.90;;;;;;5109242;27;20400;-78
2023/06/27 09:45:59;;;;;;;0.10;0.00;;;20.80;99.90;;;;;;5109147;27;20465;-77
2023/06/27 09:48:27;;;;;;;0.10;0.10;;;21.10;99.90;;;;;;5107657;28;20925;-77
2023/06/27 09:51:03;;;;;;;0.10;0.00;;;21.10;99.90;;;;;;5110243;28;20215;-78
2023/06/27 09:53:30;;;;;;;0.10;0.00;;;22.40;99.90;;;;;;5107282;27;20513;-78
2023/06/27 09:55:59;;;;;;;0.10;0.00;;;22.90;99.90;;;;;;5108136;27;20445;-78
2023/06/27 09:58:32;;;;;;;0.10;0.00;;;23.30;99.90;;;;;;5092897;28;20430;-79
2023/06/27 10:01:07;;;;;;;0.10;0.00;;;22.70;99.90;;;;;;5109288;28;20508;-77
2023/06/27 10:03:36;;;;;;;0.10;0.00;;;22.40;99.90;;;;;;5107559;27;20465;-79
2023/06/27 10:06:04;;;;;;;0.10;0.00;;;22.70;99.90;;;;;;5116420;27;20463;-78
2023/06/27 10:08:30;;;;;;;0.10;0.00;;;22.20;99.90;;;;;;5109520;28;20463;-77
2023/06/27 10:10:59;;;;;;;0.10;0.00;;;21.80;99.90;;;;;;5108950;28;20525;-78
2023/06/27 10:13:25;;;;;;;0.10;0.00;;;21.30;99.90;;;;;;5096487;28;20216;-77
2023/06/27 10:15:51;;;;;;;0.10;0.00;;;21.50;99.90;;;;;;5093390;28;20449;-77
2023/06/27 10:18:17;;;;;;;0.10;0.00;;;21.70;99.90;;;;;;5109128;27;20438;-77
2023/06/27 10:20:43;;;;;;;0.10;0.00;;;21.20;99.90;;;;;;5108028;27;20207;-77
2023/06/27 10:23:09;;;;;;;0.10;0.00;;;20.60;99.90;;;;;;5114244;27;20211;-77
2023/06/27 10:25:34;;;;;;;0.10;0.10;;;20.20;99.90;;;;;;5112113;27;20184;-77
2023/06/27 10:28:08;;;;;;;0.10;0.00;;;19.30;99.90;;;;;;5108939;27;20816;-78
2023/06/27 10:30:38;;;;;;;0.10;0.00;;;18.70;99.90;;;;;;5111566;27;20183;-78
2023/06/27 10:33:21;;;;;;;0.10;0.10;;;18.10;99.90;;;;;;5109461;27;20438;-78
2023/06/27 10:35:55;;;;;;;0.10;0.00;;;17.80;99.90;;;;;;5105078;28;20445;-78
2023/06/27 10:38:21;;;;;;;0.10;0.00;;;17.80;99.90;;;;;;5109205;28;20658;-78
2023/06/27 10:41:11;;;;;;;0.10;0.10;;;17.70;99.90;;;;;;5104310;28;20957;-79
2023/06/27 10:43:47;;;;;;;0.10;0.10;;;17.50;99.90;;;;;;5103766;28;20251;-78
2023/06/27 10:46:23;;;;;;;0.10;0.10;;;16.90;99.90;;;;;;5105364;27;20438;-78
2023/06/27 10:48:50;;;;;;;0.10;0.10;;;16.80;99.90;;;;;;5105926;27;20443;-78
2023/06/27 10:51:21;;;;;;;0.10;0.10;;;16.80;99.90;;;;;;5120787;27;20441;-78
2023/06/27 10:54:08;;;;;;;0.10;0.10;;;16.80;99.90;;;;;;5108220;27;21033;-82
2023/06/27 10:56:38;;;;;;;0.10;0.10;;;17.20;99.90;;;;;;5112056;28;20418;-79
2023/06/27 10:59:08;;;;;;;0.10;0.10;;;16.90;99.90;;;;;;5096805;28;20451;-79
2023/06/27 11:01:34;;;;;;;0.10;0.10;;;16.90;99.90;;;;;;5103116;27;20543;-79
2023/06/27 11:04:14;;;;;;;0.10;0.10;;;16.80;99.90;;;;;;5092002;27;20642;-78
2023/06/27 11:06:41;;;;;;;0.10;0.10;;;16.80;99.90;;;;;;5119843;27;20286;-79
2023/06/27 11:09:10;;;;;;;0.10;0.10;;;17.60;99.90;;;;;;5104705;27;20448;-78
2023/06/27 11:11:35;;;;;;;0.10;0.10;;;18.10;99.90;;;;;;5116611;27;20512;-78
2023/06/27 11:14:08;;;;;;;0.10;0.10;;;19.30;99.90;;;;;;5109889;28;20580;-79
2023/06/27 11:16:35;;;;;;;0.10;0.00;;;19.80;99.90;;;;;;5095823;28;20197;-79
2023/06/27 11:19:02;;;;;;;0.10;0.00;;;20.40;99.90;;;;;;5106817;28;21040;-77
2023/06/27 11:21:29;;;;;;;0.10;0.00;;;21.30;99.90;;;;;;5111993;27;20445;-78
2023/06/27 11:23:57;;;;;;;0.10;0.00;;;21.80;99.90;;;;;;5104902;28;20538;-78
2023/06/27 11:26:22;;;;;;;0.10;0.00;;;22.20;99.90;;;;;;5113950;27;20438;-78
2023/06/27 11:28:48;;;;;;;0.10;0.00;;;23.00;99.90;;;;;;5102063;27;20470;-78
2023/06/27 11:31:14;;;;;;;0.10;0.00;;;22.70;99.90;;;;;;5113146;27;20258;-79
2023/06/27 11:33:40;;;;;;;0.10;0.00;;;22.90;99.90;;;;;;5101871;28;20315;-78
2023/06/27 11:36:07;;;;;;;0.10;0.00;;;23.00;99.90;;;;;;5091493;28;20530;-77
2023/06/27 11:38:34;;;;;;;0.10;0.00;;;23.80;99.90;;;;;;5091848;28;20178;-78
2023/06/27 11:40:59;;;;;;;0.10;0.00;;;23.70;99.90;;;;;;5108879;28;20952;-77
2023/06/27 11:43:25;;;;;;;0.10;0.00;;;23.70;99.90;;;;;;5109513;27;20473;-77
2023/06/27 11:45:57;;;;;;;0.10;0.00;;;23.50;99.90;;;;;;5113219;27;20187;-78
2023/06/27 11:48:23;;;;;;;0.10;0.00;;;23.40;99.90;;;;;;5102545;27;20386;-80
2023/06/27 11:51:05;;;;;;;0.10;0.00;;;23.50;99.90;;;;;;5097666;28;20529;-77
2023/06/27 11:53:30;;;;;;;0.10;0.00;;;24.00;99.90;;;;;;5091893;28;20181;-77
2023/06/27 11:55:57;;;;;;;0.10;0.00;;;23.90;99.90;;;;;;5112086;27;21197;-77
2023/06/27 11:58:29;;;;;;;0.10;0.00;;;23.60;99.90;;;;;;5110454;28;20176;-78
2023/06/27 12:00:56;;;;;;;0.10;0.00;;;23.00;99.90;;;;;;5098959;28;20470;-76
2023/06/27 12:03:30;;;;;;;0.10;0.00;;;22.90;99.90;;;;;;5091528;28;20473;-78
2023/06/27 12:05:57;;;;;;;0.10;0.00;;;23.90;99.90;;;;;;5094098;27;20437;-78
2023/06/27 12:08:34;;;;;;;0.10;0.00;;;24.50;99.90;;;;;;5092685;28;20457;-77
2023/06/27 12:11:02;;;;;;;0.10;0.10;;;25.10;99.90;;;;;;5089022;28;20461;-78
2023/06/27 12:13:41;;;;;;;0.10;0.00;;;24.50;99.90;;;;;;5110513;27;20442;-78
2023/06/27 12:16:20;;;;;;;0.10;0.00;;;23.40;99.90;;;;;;5108282;28;20433;-78
2023/06/27 12:18:46;;;;;;;0.10;0.00;;;22.40;99.90;;;;;;5097867;28;20461;-79
2023/06/27 12:21:11;;;;;;;0.10;0.00;;;22.60;99.90;;;;;;5097762;28;20440;-78
2023/06/27 12:23:37;;;;;;;0.10;0.00;;;23.10;99.90;;;;;;5086678;28;20307;-78
2023/06/27 12:26:02;;;;;;;0.10;0.00;;;23.10;99.90;;;;;;5088987;28;20249;-78
2023/06/27 12:28:31;;;;;;;0.10;0.00;;;23.70;99.90;;;;;;5088909;28;20263;-79
2023/06/27 12:30:57;;;;;;;0.10;0.00;;;23.00;99.90;;;;;;5092096;28;20188;-79
2023/06/27 12:33:23;;;;;;;0.10;0.00;;;22.30;99.90;;;;;;5109651;28;20438;-79
2023/06/27 12:35:49;;;;;;;0.10;0.00;;;21.60;99.90;;;;;;5109162;28;20585;-78
2023/06/27 12:38:14;;;;;;;0.10;0.00;;;21.10;99.90;;;;;;5078368;28;20438;-79
2023/06/27 12:40:40;;;;;;;0.10;0.00;;;21.90;99.90;;;;;;5088673;28;20180;-79
2023/06/27 12:43:06;;;;;;;0.10;0.00;;;22.60;99.90;;;;;;5092933;28;20215;-79
2023/06/27 12:45:32;;;;;;;0.10;0.00;;;23.90;99.90;;;;;;5096239;28;20198;-79
2023/06/27 12:47:58;;;;;;;0.10;0.00;;;24.40;99.90;;;;;;5088443;28;20200;-76